South Minden, Nebraska
Current Conditions -  °F | °C
As of 9:15 AM on Friday 31 Oct 2014 (Local Time) from KEAR Reporting Station
Scattered Clouds Scattered Clouds  
Wind Chill: 19°   Ceiling: Unl
Heat Index: 28°   Visibility: 10mi
Dew Point: 19°   Wind: 10mph
Humidity: 69%   Direction: 30°NNE
Pressure: 30.57"   Gusts: NA
Location:  40.5009°N, 98.902°W
Report Text: KEAR 311415Z 03009KT 10SM SCT019 M02/M07 A3057 RMK AO1
Loading
Personal Weather Stations






























Interactive Weather Map
Tropical Storm Tracking
New forecast layout! Learn more

10-Day Weather Forecast

Advertisements
Track Severe Weather on mobile